Time;durP1;ratioP1;P1;durP2;ratioP2;P2;SDS_P1;SDS_P2;PMS_P1;PMS_P2;Temp;Humidity;BMP_temperature;BMP_pressure;BME280_temperature;BME280_humidity;BME280_pressure;Samples;Min_cycle;Max_cycle;Signal;HPM_P1;HPM_P2
2023/10/13 00:00:35;;;;;;;408.90;94.88;;;13.00;89.30;;;;;;5072430;28;21345;-66
2023/10/13 00:03:01;;;;;;;420.40;90.78;;;13.00;89.20;;;;;;5071823;28;20044;-65
2023/10/13 00:05:30;;;;;;;349.55;84.10;;;13.00;89.30;;;;;;5070805;28;20418;-66
2023/10/13 00:08:02;;;;;;;354.85;86.32;;;13.10;89.30;;;;;;5083026;28;20147;-66
2023/10/13 00:10:31;;;;;;;;;;;13.10;89.30;;;;;;5074156;28;20044;-66
2023/10/13 00:13:12;;;;;;;384.90;89.72;;;13.10;89.50;;;;;;5071706;28;19976;-66
2023/10/13 00:15:58;;;;;;;321.02;83.35;;;13.10;89.50;;;;;;5071145;28;20452;-66
2023/10/13 00:18:27;;;;;;;337.77;89.53;;;13.20;89.50;;;;;;5071972;28;20072;-66
2023/10/13 00:20:56;;;;;;;303.95;84.85;;;13.30;89.60;;;;;;5071618;28;20137;-66
2023/10/13 00:23:22;;;;;;;312.85;87.20;;;13.30;89.70;;;;;;5070592;28;20052;-66
2023/10/13 00:25:56;;;;;;;274.92;82.85;;;13.40;89.70;;;;;;5071729;28;20406;-66
2023/10/13 00:28:26;;;;;;;404.77;107.93;;;13.50;89.70;;;;;;5071454;28;20324;-66
2023/10/13 00:31:00;;;;;;;344.30;92.32;;;13.50;89.70;;;;;;5071716;28;20041;-65
2023/10/13 00:33:26;;;;;;;349.45;96.93;;;13.60;89.70;;;;;;5071604;28;20113;-66
2023/10/13 00:35:52;;;;;;;411.13;102.47;;;13.60;89.70;;;;;;5071325;28;20123;-66
2023/10/13 00:38:18;;;;;;;276.45;90.57;;;13.70;89.80;;;;;;5071020;28;20135;-66
2023/10/13 00:40:51;;;;;;;336.65;91.13;;;13.70;90.00;;;;;;5053233;28;20471;-65
2023/10/13 00:45:57;;;;;;;331.48;89.95;;;13.90;90.00;;;;;;5071544;28;20552;-66
2023/10/13 00:48:34;;;;;;;226.52;78.32;;;14.00;89.90;;;;;;5062487;28;20060;-66
2023/10/13 00:51:08;;;;;;;311.27;87.47;;;14.00;90.00;;;;;;5070576;28;20036;-66
2023/10/13 00:53:40;;;;;;;271.40;81.28;;;14.10;90.10;;;;;;5053420;28;20458;-66
2023/10/13 00:56:18;;;;;;;230.45;77.30;;;14.20;90.10;;;;;;5071629;28;20045;-66
2023/10/13 00:58:46;;;;;;;218.60;76.60;;;14.20;90.10;;;;;;5070954;28;20105;-66
2023/10/13 01:01:18;;;;;;;209.65;78.50;;;14.30;90.20;;;;;;5070516;28;20052;-66
2023/10/13 01:03:48;;;;;;;209.20;71.55;;;14.30;90.20;;;;;;5070764;28;20088;-66
2023/10/13 01:06:19;;;;;;;281.98;83.15;;;14.40;90.20;;;;;;5052967;28;20075;-66
2023/10/13 01:08:50;;;;;;;284.15;82.40;;;14.40;90.10;;;;;;5070247;28;20063;-66
2023/10/13 01:11:23;;;;;;;297.35;83.22;;;14.40;90.10;;;;;;5070576;28;20401;-66
2023/10/13 01:13:51;;;;;;;267.77;79.63;;;14.40;90.20;;;;;;5070433;28;20083;-65
2023/10/13 01:16:26;;;;;;;233.90;74.85;;;14.40;90.10;;;;;;5052618;28;20128;-66
2023/10/13 01:18:53;;;;;;;206.98;74.85;;;14.50;90.10;;;;;;5070390;28;20045;-66
2023/10/13 01:21:26;;;;;;;245.30;81.95;;;14.50;90.20;;;;;;5070022;28;20036;-67
2023/10/13 01:23:52;;;;;;;290.38;82.15;;;14.60;90.20;;;;;;5070185;28;20446;-66
2023/10/13 01:26:24;;;;;;;241.88;79.28;;;14.60;90.10;;;;;;5070303;28;20045;-66
2023/10/13 01:28:51;;;;;;;222.25;79.47;;;14.60;90.20;;;;;;5070576;28;20458;-66
2023/10/13 01:31:45;;;;;;;248.20;75.85;;;14.60;90.20;;;;;;5069867;28;20242;-66
2023/10/13 01:34:03;;;;;;;230.73;73.18;;;14.70;90.20;;;;;;5069032;28;20052;-66
2023/10/13 01:36:35;;;;;;;268.95;82.55;;;14.70;90.20;;;;;;5069877;28;20056;-66
2023/10/13 01:39:01;;;;;;;247.73;78.05;;;14.70;90.20;;;;;;5069717;28;20120;-67
2023/10/13 01:41:27;;;;;;;265.75;79.95;;;14.70;90.20;;;;;;5069886;28;20040;-66
2023/10/13 01:43:53;;;;;;;252.68;74.45;;;14.70;90.20;;;;;;5051949;28;20048;-67
2023/10/13 01:46:21;;;;;;;212.40;70.28;;;14.80;90.20;;;;;;5069734;28;20066;-66
2023/10/13 01:48:47;;;;;;;221.00;69.82;;;14.80;90.30;;;;;;5069993;28;20442;-66
2023/10/13 01:51:13;;;;;;;172.23;64.43;;;14.80;90.20;;;;;;5069961;28;20070;-66
2023/10/13 01:53:41;;;;;;;143.25;61.55;;;14.80;90.20;;;;;;5069051;28;20094;-66
2023/10/13 01:56:10;;;;;;;153.82;62.83;;;14.90;90.30;;;;;;5069418;28;20897;-67
2023/10/13 01:58:37;;;;;;;107.20;49.05;;;14.90;90.30;;;;;;5069924;28;20052;-66
2023/10/13 02:01:04;;;;;;;168.63;60.75;;;15.00;90.30;;;;;;5070551;28;20051;-66
2023/10/13 02:03:30;;;;;;;136.23;58.78;;;15.00;90.40;;;;;;5069159;28;20050;-67
2023/10/13 02:05:58;;;;;;;174.73;61.20;;;15.00;90.40;;;;;;5069338;28;20040;-67
2023/10/13 02:08:24;;;;;;;112.97;50.00;;;15.00;90.40;;;;;;5068873;28;20625;-66
2023/10/13 02:10:54;;;;;;;119.70;51.03;;;15.00;90.40;;;;;;5070197;28;20056;-67
2023/10/13 02:13:22;;;;;;;114.30;48.60;;;15.10;90.40;;;;;;5069199;28;20415;-67
2023/10/13 02:15:48;;;;;;;119.05;49.75;;;15.10;90.40;;;;;;5070092;28;20053;-67
2023/10/13 02:18:21;;;;;;;97.32;43.08;;;15.20;90.50;;;;;;5069246;28;20075;-66
2023/10/13 02:20:54;;;;;;;94.70;43.10;;;15.20;90.40;;;;;;5069312;28;20596;-67
2023/10/13 02:23:29;;;;;;;107.32;46.53;;;15.20;90.50;;;;;;5069715;28;20048;-67
2023/10/13 02:26:11;;;;;;;97.55;42.35;;;15.20;90.40;;;;;;5069983;28;20186;-67
2023/10/13 02:28:37;;;;;;;77.43;36.35;;;15.20;90.40;;;;;;5069096;28;20123;-66
2023/10/13 02:31:04;;;;;;;85.53;37.50;;;15.20;90.50;;;;;;5050899;28;20123;-66
2023/10/13 02:33:30;;;;;;;64.60;32.97;;;15.30;90.40;;;;;;5069204;28;20080;-66
2023/10/13 02:36:04;;;;;;;73.53;34.40;;;15.20;90.40;;;;;;5069200;28;20422;-67
2023/10/13 02:38:41;;;;;;;72.85;33.65;;;15.30;90.40;;;;;;5068845;28;20059;-66
2023/10/13 02:41:27;;;;;;;71.15;32.80;;;15.30;90.40;;;;;;5068948;28;20063;-67
2023/10/13 02:43:54;;;;;;;76.85;36.03;;;15.30;90.30;;;;;;5069104;28;20079;-67
2023/10/13 02:46:29;;;;;;;73.07;33.13;;;15.30;90.30;;;;;;5068958;28;20093;-67
2023/10/13 02:48:57;;;;;;;67.35;32.65;;;15.30;90.40;;;;;;5069457;28;20176;-67
2023/10/13 02:51:31;;;;;;;75.75;34.03;;;15.30;90.30;;;;;;5068371;28;20396;-67
2023/10/13 02:54:02;;;;;;;85.32;35.72;;;15.30;90.30;;;;;;5068475;28;20056;-66
2023/10/13 02:56:29;;;;;;;78.35;35.65;;;15.30;90.20;;;;;;5051551;28;20045;-66
2023/10/13 02:58:56;;;;;;;64.57;33.45;;;15.30;90.20;;;;;;5069373;28;20377;-66
2023/10/13 03:01:27;;;;;;;74.03;36.15;;;15.30;90.30;;;;;;5069042;28;20048;-66
2023/10/13 03:03:55;;;;;;;66.07;32.85;;;15.30;90.30;;;;;;5068968;28;20076;-66
2023/10/13 03:06:32;;;;;;;62.40;32.72;;;15.30;90.30;;;;;;5068763;28;20105;-66
2023/10/13 03:09:15;;;;;;;73.05;35.00;;;15.40;90.30;;;;;;5068942;28;20045;-66
2023/10/13 03:11:50;;;;;;;61.55;32.03;;;15.40;90.40;;;;;;5068641;28;20079;-66
2023/10/13 03:14:31;;;;;;;74.78;35.33;;;15.40;90.30;;;;;;5069606;28;20098;-66
2023/10/13 03:17:06;;;;;;;83.15;38.25;;;15.40;90.30;;;;;;5068788;28;20451;-67
2023/10/13 03:19:32;;;;;;;83.97;42.65;;;15.50;90.30;;;;;;5068720;28;20491;-66
2023/10/13 03:24:34;;;;;;;84.45;39.50;;;15.50;90.30;;;;;;5068882;28;20268;-67
2023/10/13 03:27:09;;;;;;;80.13;43.60;;;15.50;90.30;;;;;;5068902;28;20506;-67
2023/10/13 03:29:43;;;;;;;94.15;48.08;;;15.50;90.40;;;;;;5052242;28;20757;-67
2023/10/13 03:32:17;;;;;;;89.28;45.55;;;15.50;90.40;;;;;;5077984;28;20040;-67
2023/10/13 03:34:52;;;;;;;96.97;46.83;;;15.50;90.40;;;;;;5067855;28;20118;-67
2023/10/13 03:37:40;;;;;;;99.18;49.22;;;15.50;90.50;;;;;;5051188;28;20082;-67
2023/10/13 03:43:09;;;;;;;104.25;47.20;;;15.60;90.50;;;;;;5048894;28;20432;-67
2023/10/13 03:45:42;;;;;;;101.82;46.10;;;15.60;90.40;;;;;;5068751;28;20060;-66
2023/10/13 03:51:03;;;;;;;104.95;44.53;;;15.60;90.50;;;;;;5068483;28;20060;-67
2023/10/13 03:53:33;;;;;;;134.23;48.20;;;15.60;90.40;;;;;;5068428;28;20067;-66
2023/10/13 03:56:26;;;;;;;78.97;38.88;;;15.60;90.40;;;;;;5068589;28;20087;-67
2023/10/13 03:58:53;;;;;;;80.78;39.22;;;15.60;90.40;;;;;;5066732;28;20087;-67
2023/10/13 04:01:30;;;;;;;95.13;40.53;;;15.60;90.40;;;;;;5062598;28;20091;-67
2023/10/13 04:03:57;;;;;;;122.00;43.45;;;15.60;90.40;;;;;;5069804;28;20048;-67
2023/10/13 04:15:14;;;;;;;97.78;38.92;;;15.60;90.30;;;;;;5072190;28;20079;-66
2023/10/13 04:17:48;;;;;;;84.20;36.70;;;15.60;90.30;;;;;;5071784;28;20527;-66
2023/10/13 04:20:27;;;;;;;64.10;33.00;;;15.50;90.30;;;;;;5072005;28;20044;-66
2023/10/13 04:25:51;;;;;;;72.13;35.00;;;15.50;90.40;;;;;;5053643;28;20098;-66
2023/10/13 04:28:37;;;;;;;53.50;30.48;;;15.50;90.40;;;;;;5071579;28;20045;-66
2023/10/13 04:31:11;;;;;;;62.85;31.42;;;15.50;90.40;;;;;;5048894;28;20495;-67
2023/10/13 04:33:51;;;;;;;64.15;31.70;;;15.50;90.40;;;;;;5070988;28;20480;-66
2023/10/13 04:41:36;;;;;;;61.92;32.85;;;15.60;90.50;;;;;;5065156;28;21097;-66
2023/10/13 04:44:05;;;;;;;72.28;34.78;;;15.60;90.50;;;;;;5060524;28;20067;-66
2023/10/13 04:52:12;;;;;;;62.80;32.25;;;15.60;90.50;;;;;;5064638;28;20048;-67
2023/10/13 04:54:49;;;;;;;91.43;42.53;;;15.60;90.50;;;;;;5071797;28;20052;-66
2023/10/13 04:58:10;;;;;;;85.05;42.35;;;15.60;90.50;;;;;;5065012;28;20052;-66
2023/10/13 05:46:49;;;;;;;26.40;16.65;;;15.40;90.40;;;;;;5069855;28;20052;-66
2023/10/13 06:29:53;;;;;;;21.90;13.23;;;15.10;90.20;;;;;;5068898;28;20060;-65
2023/10/13 06:32:26;;;;;;;15.93;12.25;;;15.10;90.20;;;;;;5069142;28;20412;-65
2023/10/13 06:34:57;;;;;;;19.92;11.68;;;15.10;90.20;;;;;;5055371;28;20056;-66
2023/10/13 06:37:30;;;;;;;19.42;11.48;;;15.10;90.20;;;;;;5063953;28;20414;-65
2023/10/13 06:40:06;;;;;;;21.73;12.52;;;15.20;90.20;;;;;;5058849;28;20052;-65
2023/10/13 06:42:34;;;;;;;16.05;11.55;;;15.20;90.30;;;;;;5060669;28;20045;-66
2023/10/13 06:45:08;;;;;;;19.83;11.70;;;15.20;90.30;;;;;;5058806;28;20499;-66
2023/10/13 06:47:39;;;;;;;16.05;10.68;;;15.20;90.40;;;;;;5055942;28;20041;-65
2023/10/13 06:50:15;;;;;;;19.55;11.20;;;15.20;90.40;;;;;;5059103;28;20036;-66
2023/10/13 06:52:44;;;;;;;16.63;10.93;;;15.20;90.40;;;;;;5062328;28;20095;-66
2023/10/13 06:55:58;;;;;;;16.00;10.48;;;15.30;90.40;;;;;;5053992;28;20044;-66
2023/10/13 06:58:00;;;;;;;16.23;10.05;;;15.30;90.50;;;;;;5048276;28;20056;-66
2023/10/13 07:00:33;;;;;;;12.95;9.45;;;15.40;90.60;;;;;;5062189;28;20076;-66
2023/10/13 07:05:59;;;;;;;15.65;9.82;;;15.40;90.60;;;;;;5025127;28;20496;-66
2023/10/13 07:08:25;;;;;;;16.70;8.02;;;15.50;90.70;;;;;;5055489;28;20110;-66
2023/10/13 07:11:05;;;;;;;11.10;7.10;;;15.50;90.50;;;;;;5053163;28;20052;-65
2023/10/13 07:13:36;;;;;;;12.95;7.20;;;15.60;90.20;;;;;;5058327;28;20076;-65
2023/10/13 07:16:12;;;;;;;17.85;6.40;;;15.60;90.00;;;;;;5041839;28;20420;-66
2023/10/13 07:18:49;;;;;;;16.33;7.03;;;15.60;89.70;;;;;;5058552;28;20103;-66
2023/10/13 07:21:15;;;;;;;13.68;6.75;;;15.60;89.20;;;;;;5061275;28;20045;-65
2023/10/13 07:24:00;;;;;;;17.90;8.23;;;15.60;88.80;;;;;;5058893;28;20067;-66
2023/10/13 07:26:26;;;;;;;17.45;8.90;;;15.60;89.00;;;;;;5051773;28;20099;-66
2023/10/13 07:28:52;;;;;;;14.63;7.40;;;15.60;89.00;;;;;;5052352;28;20040;-66
2023/10/13 07:31:20;;;;;;;18.80;7.55;;;15.60;89.00;;;;;;5053126;28;20055;-66
2023/10/13 07:33:47;;;;;;;19.05;8.63;;;15.60;88.90;;;;;;5055536;28;20044;-67
2023/10/13 07:36:15;;;;;;;18.27;8.75;;;15.60;89.00;;;;;;5055417;28;20209;-66
2023/10/13 07:38:49;;;;;;;21.23;8.80;;;15.60;89.00;;;;;;5056440;28;20044;-66
2023/10/13 07:41:21;;;;;;;22.75;9.50;;;15.60;89.00;;;;;;5055836;28;20124;-67
2023/10/13 07:43:50;;;;;;;18.55;7.50;;;15.60;89.10;;;;;;5055586;28;20051;-66
2023/10/13 07:46:16;;;;;;;20.73;8.23;;;15.60;89.10;;;;;;5055331;28;20052;-66
2023/10/13 07:48:45;;;;;;;21.33;8.45;;;15.60;89.00;;;;;;5056493;28;20526;-66
2023/10/13 07:51:16;;;;;;;20.75;9.20;;;15.60;89.00;;;;;;5055799;28;20093;-67
2023/10/13 07:53:43;;;;;;;21.42;8.65;;;15.60;89.00;;;;;;5055911;28;20056;-66
2023/10/13 07:56:11;;;;;;;25.75;10.30;;;15.60;89.00;;;;;;5037534;28;20044;-66
2023/10/13 07:58:52;;;;;;;21.33;9.52;;;15.50;89.00;;;;;;5055789;28;20123;-66
2023/10/13 08:01:21;;;;;;;19.17;8.57;;;15.50;89.10;;;;;;5055079;28;20050;-67
2023/10/13 08:03:47;;;;;;;24.85;9.70;;;15.50;89.00;;;;;;5053995;28;20088;-66
2023/10/13 08:08:43;;;;;;;26.92;10.68;;;15.40;88.90;;;;;;5055110;28;20126;-66
2023/10/13 08:13:58;;;;;;;21.92;9.25;;;15.40;89.00;;;;;;5055655;28;20091;-66
2023/10/13 08:19:15;;;;;;;22.55;9.50;;;15.40;89.20;;;;;;5056073;28;20067;-66
2023/10/13 08:47:53;;;;;;;22.90;11.05;;;15.60;89.80;;;;;;5054357;28;20440;-66
2023/10/13 09:01:48;;;;;;;22.60;10.32;;;15.90;89.60;;;;;;5054663;28;20683;-67
2023/10/13 09:09:58;;;;;;;24.67;10.88;;;16.00;89.50;;;;;;5051709;28;20291;-66
2023/10/13 09:15:17;;;;;;;19.65;10.77;;;16.20;89.30;;;;;;5048889;28;20059;-66
2023/10/13 09:18:12;;;;;;;20.98;10.45;;;16.20;89.30;;;;;;5049569;28;20060;-66
2023/10/13 09:23:24;;;;;;;23.25;10.88;;;16.40;89.20;;;;;;5048290;28;20048;-65
2023/10/13 09:26:08;;;;;;;26.73;12.65;;;16.50;88.90;;;;;;5049178;28;20695;-66
2023/10/13 09:28:36;;;;;;;20.73;10.35;;;16.60;88.80;;;;;;5049642;28;20061;-66
2023/10/13 09:31:07;;;;;;;18.77;8.80;;;16.70;88.40;;;;;;5050277;28;20055;-66
2023/10/13 09:33:35;;;;;;;16.25;9.07;;;16.80;87.70;;;;;;5050605;28;20060;-66
2023/10/13 09:36:06;;;;;;;15.98;8.07;;;16.90;87.30;;;;;;5048767;28;20056;-66
2023/10/13 09:38:40;;;;;;;19.23;9.63;;;17.00;87.20;;;;;;5050264;28;20055;-66
2023/10/13 09:41:53;;;;;;;24.67;9.77;;;17.00;87.30;;;;;;5049293;28;20048;-66
2023/10/13 09:43:57;;;;;;;19.90;10.20;;;17.10;87.10;;;;;;5040015;28;20075;-66
2023/10/13 09:46:29;;;;;;;17.88;10.13;;;17.20;86.90;;;;;;5048901;28;20052;-66
2023/10/13 09:49:08;;;;;;;21.23;10.93;;;17.20;87.10;;;;;;5044013;28;20059;-66
2023/10/13 09:51:34;;;;;;;19.58;9.70;;;17.20;86.70;;;;;;5047692;28;20064;-66
2023/10/13 09:54:19;;;;;;;22.60;9.88;;;17.30;86.70;;;;;;5049047;28;20049;-66
2023/10/13 09:56:56;;;;;;;17.55;9.30;;;17.40;86.50;;;;;;5047452;28;20244;-67
2023/10/13 09:59:35;;;;;;;20.00;8.95;;;17.50;86.80;;;;;;5049027;28;20056;-66
2023/10/13 10:02:08;;;;;;;18.95;8.70;;;17.50;86.90;;;;;;5048550;28;20048;-66
2023/10/13 10:04:44;;;;;;;21.70;8.85;;;17.60;86.50;;;;;;5047205;28;20135;-67
2023/10/13 10:07:10;;;;;;;19.20;7.95;;;17.60;86.30;;;;;;5048391;28;20590;-66
2023/10/13 10:09:37;;;;;;;21.08;9.43;;;17.80;86.30;;;;;;5048914;28;20045;-66
2023/10/13 10:12:03;;;;;;;17.02;8.18;;;17.80;86.00;;;;;;5049684;28;20114;-66
2023/10/13 10:14:41;;;;;;;23.15;8.30;;;17.80;85.70;;;;;;5049282;28;20183;-66
2023/10/13 10:17:08;;;;;;;19.75;7.70;;;17.80;85.60;;;;;;5047415;28;20044;-66
2023/10/13 10:19:49;;;;;;;18.55;7.13;;;17.80;85.30;;;;;;5047067;28;20268;-66
2023/10/13 10:22:35;;;;;;;14.05;5.47;;;17.80;85.10;;;;;;5047144;28;20618;-66
2023/10/13 10:25:02;;;;;;;24.55;7.63;;;17.80;84.60;;;;;;5044650;28;20048;-66
2023/10/13 10:27:30;;;;;;;19.92;7.18;;;17.80;84.90;;;;;;5048776;28;20056;-66
2023/10/13 10:29:57;;;;;;;20.17;6.40;;;17.90;84.70;;;;;;5047756;28;20580;-66
2023/10/13 10:32:37;;;;;;;21.02;6.97;;;17.90;84.50;;;;;;5047174;28;20139;-66
2023/10/13 10:35:08;;;;;;;16.00;6.63;;;18.00;83.90;;;;;;5047575;28;20060;-66
2023/10/13 10:37:34;;;;;;;19.38;6.65;;;18.10;84.00;;;;;;5047709;28;20720;-67
2023/10/13 10:40:05;;;;;;;15.57;6.70;;;18.20;83.90;;;;;;5047338;28;20059;-66
2023/10/13 10:42:31;;;;;;;21.40;7.15;;;18.30;83.50;;;;;;5045701;28;20045;-65
2023/10/13 10:45:05;;;;;;;18.48;6.72;;;18.30;82.90;;;;;;5046496;28;20619;-66
2023/10/13 10:47:31;;;;;;;17.77;6.45;;;18.40;82.70;;;;;;5047320;28;20074;-66
2023/10/13 10:49:59;;;;;;;18.65;6.63;;;18.50;82.50;;;;;;5045364;28;20711;-66
2023/10/13 10:52:27;;;;;;;21.13;6.82;;;18.50;82.20;;;;;;5046186;28;20052;-65
2023/10/13 10:55:06;;;;;;;20.48;6.70;;;18.50;82.10;;;;;;5046822;28;20150;-66
2023/10/13 10:57:37;;;;;;;21.23;6.47;;;18.60;81.80;;;;;;5047128;28;20051;-67
2023/10/13 11:00:11;;;;;;;19.48;6.85;;;18.60;81.80;;;;;;5045725;28;20583;-66
2023/10/13 11:02:37;;;;;;;20.38;6.25;;;18.70;81.90;;;;;;5046731;28;20467;-66
2023/10/13 11:05:05;;;;;;;19.85;6.97;;;18.70;81.30;;;;;;5044824;28;20502;-66
2023/10/13 11:07:34;;;;;;;25.17;6.75;;;18.80;81.90;;;;;;5048880;28;20048;-66
2023/10/13 11:10:26;;;;;;;19.98;6.63;;;19.00;82.10;;;;;;5050129;28;20051;-67
2023/10/13 11:12:56;;;;;;;23.40;6.55;;;19.10;81.40;;;;;;5050170;28;20176;-66
2023/10/13 11:15:22;;;;;;;22.02;7.47;;;19.10;80.80;;;;;;5051945;28;20119;-66
2023/10/13 11:17:54;;;;;;;21.95;6.50;;;19.10;81.10;;;;;;5053423;28;20055;-66
2023/10/13 11:20:44;;;;;;;23.38;6.53;;;19.00;81.10;;;;;;5050786;28;20458;-65
2023/10/13 11:23:13;;;;;;;15.75;6.53;;;19.00;81.20;;;;;;5050006;28;20052;-66
2023/10/13 11:25:39;;;;;;;18.75;6.72;;;18.90;81.20;;;;;;5052401;28;20045;-66
2023/10/13 11:28:17;;;;;;;21.95;6.60;;;18.90;80.80;;;;;;5053432;28;20040;-66
2023/10/13 11:30:50;;;;;;;15.52;6.20;;;18.90;80.60;;;;;;5050954;28;20085;-66
2023/10/13 11:33:23;;;;;;;17.70;6.43;;;18.90;80.10;;;;;;5051484;28;20045;-66
2023/10/13 11:35:55;;;;;;;17.35;5.60;;;19.00;80.20;;;;;;5054086;28;20143;-66
2023/10/13 11:38:43;;;;;;;21.63;6.70;;;19.10;80.40;;;;;;5054029;28;20437;-66
2023/10/13 11:41:12;;;;;;;17.23;6.10;;;19.10;79.60;;;;;;5054488;28;20045;-66
2023/10/13 11:49:17;;;;;;;23.70;6.95;;;19.00;79.30;;;;;;5055205;28;20067;-66
2023/10/13 11:51:48;;;;;;;19.65;6.22;;;18.90;79.20;;;;;;5052301;28;20103;-66
2023/10/13 11:54:15;;;;;;;21.20;6.72;;;18.80;79.30;;;;;;5054302;28;20048;-65
2023/10/13 11:56:44;;;;;;;21.65;5.85;;;18.80;79.00;;;;;;5053602;28;20067;-65
2023/10/13 11:59:24;;;;;;;23.02;7.78;;;18.70;78.10;;;;;;5054595;28;20048;-65
2023/10/13 12:07:19;;;;;;;26.13;7.65;;;18.30;81.20;;;;;;5053259;28;20060;-66
2023/10/13 12:12:28;;;;;;;31.80;8.82;;;18.20;81.90;;;;;;5051345;28;20135;-66
2023/10/13 12:14:57;;;;;;;22.15;7.60;;;18.20;82.20;;;;;;5031755;28;20109;-66
2023/10/13 12:17:34;;;;;;;19.13;7.70;;;18.20;82.50;;;;;;5051378;28;20044;-66
2023/10/13 12:20:05;;;;;;;18.05;7.90;;;18.20;82.70;;;;;;5049957;28;20155;-65
2023/10/13 12:22:39;;;;;;;18.95;7.90;;;18.30;82.80;;;;;;5053273;28;20056;-66
2023/10/13 12:25:25;;;;;;;21.50;7.05;;;18.30;82.50;;;;;;5050361;28;20082;-66
2023/10/13 12:27:56;;;;;;;25.65;8.02;;;18.30;82.30;;;;;;5050929;28;20084;-66
2023/10/13 12:30:35;;;;;;;23.05;7.90;;;18.40;81.90;;;;;;5016372;28;20052;-65
2023/10/13 12:33:08;;;;;;;19.40;7.75;;;18.40;81.90;;;;;;5049795;28;20137;-66
2023/10/13 12:35:37;;;;;;;19.45;8.27;;;18.40;81.50;;;;;;5052188;28;20065;-66
2023/10/13 12:38:08;;;;;;;18.23;8.13;;;18.40;81.70;;;;;;5050335;28;20687;-66
2023/10/13 12:49:04;;;;;;;20.35;8.70;;;18.10;82.30;;;;;;5051658;28;20056;-66
2023/10/13 12:54:04;;;;;;;19.83;8.07;;;18.00;82.70;;;;;;5048848;28;20457;-67
2023/10/13 12:56:30;;;;;;;25.98;9.07;;;18.00;82.40;;;;;;5045239;28;20048;-66
2023/10/13 12:58:56;;;;;;;26.60;9.25;;;18.00;82.50;;;;;;5049627;28;20462;-66
2023/10/13 13:01:24;;;;;;;22.63;8.88;;;18.00;82.80;;;;;;5049043;28;20143;-66
2023/10/13 13:03:55;;;;;;;22.30;9.30;;;17.90;82.80;;;;;;5050334;28;20052;-66
2023/10/13 13:06:29;;;;;;;23.00;9.57;;;18.00;82.50;;;;;;5050100;28;20056;-66
2023/10/13 13:09:00;;;;;;;26.05;10.05;;;17.80;82.70;;;;;;5051173;28;20044;-66
2023/10/13 13:11:28;;;;;;;22.40;10.07;;;17.90;82.40;;;;;;5049665;28;20135;-66
2023/10/13 13:13:54;;;;;;;19.95;10.57;;;17.80;83.00;;;;;;5050274;28;20048;-66
2023/10/13 13:16:23;;;;;;;20.80;10.25;;;17.80;83.30;;;;;;5049259;28;20051;-65
2023/10/13 13:18:50;;;;;;;27.23;11.50;;;17.80;83.60;;;;;;5050663;28;20059;-66
2023/10/13 13:21:23;;;;;;;28.08;11.43;;;17.60;83.80;;;;;;5050250;28;20410;-65
2023/10/13 13:23:56;;;;;;;24.33;10.80;;;17.60;84.20;;;;;;5050238;28;20162;-66
2023/10/13 13:26:22;;;;;;;28.05;11.93;;;17.50;84.20;;;;;;5048852;28;20091;-66
2023/10/13 13:28:50;;;;;;;24.90;11.32;;;17.50;84.50;;;;;;5049569;28;20052;-66
2023/10/13 13:31:26;;;;;;;28.02;11.00;;;17.50;84.70;;;;;;5048716;28;20044;-66
2023/10/13 13:33:52;;;;;;;22.63;9.80;;;17.50;84.70;;;;;;5048229;28;20192;-66
2023/10/13 13:36:19;;;;;;;30.70;10.88;;;17.50;84.90;;;;;;5050343;28;20091;-66
2023/10/13 13:38:54;;;;;;;25.15;10.48;;;17.40;84.80;;;;;;5051597;28;20056;-66
2023/10/13 13:41:21;;;;;;;23.83;10.90;;;17.40;85.10;;;;;;5052836;28;20830;-66
2023/10/13 13:46:19;;;;;;;28.92;10.73;;;17.40;84.60;;;;;;5048984;28;20080;-66
2023/10/13 13:48:48;;;;;;;24.40;10.13;;;17.40;84.70;;;;;;5049093;28;20583;-66
2023/10/13 13:51:26;;;;;;;24.40;11.10;;;17.40;84.80;;;;;;5049705;28;20049;-66
2023/10/13 13:53:52;;;;;;;21.55;10.60;;;17.40;84.80;;;;;;5047967;28;20511;-66
2023/10/13 13:56:19;;;;;;;20.95;9.95;;;17.40;84.90;;;;;;5050099;28;20063;-67
2023/10/13 13:58:46;;;;;;;30.15;9.70;;;17.50;84.70;;;;;;5048538;28;20126;-66
2023/10/13 14:01:12;;;;;;;26.13;10.10;;;17.50;84.70;;;;;;5050159;28;20048;-66
2023/10/13 14:03:47;;;;;;;31.65;10.30;;;17.50;84.20;;;;;;5049559;28;20060;-66
2023/10/13 14:06:18;;;;;;;24.13;9.73;;;17.50;84.40;;;;;;5048790;28;20064;-66
2023/10/13 14:08:48;;;;;;;25.60;9.70;;;17.60;84.20;;;;;;5049428;28;20975;-66
2023/10/13 14:14:03;;;;;;;22.33;9.02;;;17.70;83.70;;;;;;5049265;28;20061;-66
2023/10/13 14:16:30;;;;;;;23.95;8.90;;;17.80;83.40;;;;;;5045750;28;20414;-66
2023/10/13 14:18:55;;;;;;;24.63;10.10;;;17.80;83.50;;;;;;5048802;28;20063;-66
2023/10/13 14:21:24;;;;;;;18.60;8.23;;;17.80;83.10;;;;;;5048791;28;20044;-66
2023/10/13 14:23:54;;;;;;;27.77;8.82;;;17.80;83.30;;;;;;5048543;28;20137;-67
2023/10/13 14:26:21;;;;;;;19.73;9.57;;;17.90;83.30;;;;;;5048356;28;20056;-66
2023/10/13 14:29:08;;;;;;;23.63;9.18;;;17.80;83.50;;;;;;5047441;28;20168;-66
2023/10/13 14:31:38;;;;;;;23.63;9.88;;;17.90;83.30;;;;;;5048586;28;20063;-66
2023/10/13 14:34:03;;;;;;;21.23;9.35;;;17.90;83.30;;;;;;5049056;28;20048;-66
2023/10/13 14:36:31;;;;;;;26.70;8.60;;;17.90;83.30;;;;;;5047474;28;20063;-66
2023/10/13 14:38:57;;;;;;;19.27;8.50;;;17.90;83.10;;;;;;5049007;28;20581;-66
2023/10/13 14:41:23;;;;;;;23.02;8.57;;;18.00;82.60;;;;;;5049193;28;20043;-66
2023/10/13 14:43:49;;;;;;;29.95;8.48;;;18.00;82.60;;;;;;5048370;28;20059;-65
2023/10/13 14:46:23;;;;;;;19.92;8.77;;;18.00;82.30;;;;;;5050139;28;20515;-66
2023/10/13 14:48:52;;;;;;;18.40;7.82;;;18.00;82.20;;;;;;5050612;28;20060;-66
2023/10/13 14:51:18;;;;;;;19.23;8.15;;;18.10;82.10;;;;;;5051378;28;20109;-68
2023/10/13 14:53:48;;;;;;;22.10;7.70;;;18.10;82.00;;;;;;5048038;28;20049;-66
2023/10/13 14:56:15;;;;;;;20.73;8.25;;;18.10;82.10;;;;;;5048212;28;20965;-66
2023/10/13 14:58:43;;;;;;;27.27;8.15;;;18.10;82.00;;;;;;5048985;28;20215;-68
2023/10/13 15:01:14;;;;;;;26.10;8.25;;;18.10;81.90;;;;;;5047648;28;20045;-66
2023/10/13 15:03:44;;;;;;;21.27;7.82;;;18.20;81.80;;;;;;5029422;28;20535;-66
2023/10/13 15:06:30;;;;;;;24.77;8.15;;;18.20;81.60;;;;;;5048822;28;20423;-66
2023/10/13 15:09:00;;;;;;;21.63;8.20;;;18.20;81.80;;;;;;5047693;28;20113;-65
2023/10/13 15:11:28;;;;;;;25.88;8.93;;;18.20;81.30;;;;;;5048499;28;20052;-66
2023/10/13 15:13:55;;;;;;;26.27;9.27;;;18.20;81.70;;;;;;5048463;28;20045;-66
2023/10/13 15:16:23;;;;;;;27.85;8.98;;;18.10;82.50;;;;;;5031792;28;20079;-66
2023/10/13 15:18:51;;;;;;;25.92;9.15;;;18.10;82.70;;;;;;5029928;28;20083;-65
2023/10/13 15:21:26;;;;;;;20.40;9.02;;;18.00;82.90;;;;;;5049842;28;20048;-66
2023/10/13 15:23:55;;;;;;;24.63;9.18;;;18.00;83.20;;;;;;5048408;28;20143;-66
2023/10/13 15:26:23;;;;;;;26.50;8.93;;;18.00;83.50;;;;;;5048198;28;20056;-65
2023/10/13 15:28:49;;;;;;;27.25;9.43;;;18.00;83.40;;;;;;5047253;28;20063;-66
2023/10/13 15:31:37;;;;;;;28.67;9.77;;;18.00;83.40;;;;;;5048517;28;20072;-66
2023/10/13 15:34:12;;;;;;;22.63;8.80;;;17.90;83.50;;;;;;5048569;28;20068;-66
2023/10/13 15:36:42;;;;;;;22.23;8.70;;;17.90;83.60;;;;;;5027734;28;20060;-66
2023/10/13 15:39:10;;;;;;;23.50;8.83;;;17.80;83.90;;;;;;5027848;28;20079;-66
2023/10/13 15:41:40;;;;;;;19.42;8.23;;;17.80;83.80;;;;;;5028103;28;20052;-66
2023/10/13 15:44:10;;;;;;;26.35;7.88;;;17.80;83.80;;;;;;5028644;28;20057;-66
2023/10/13 15:46:37;;;;;;;23.38;7.95;;;17.90;83.60;;;;;;5028846;28;20384;-66
2023/10/13 15:49:08;;;;;;;18.98;8.15;;;17.90;83.60;;;;;;5029030;28;20132;-66
2023/10/13 15:51:37;;;;;;;28.52;8.80;;;17.90;83.60;;;;;;5028471;28;20048;-65
2023/10/13 15:54:04;;;;;;;22.95;8.10;;;18.00;83.60;;;;;;5032214;28;20059;-66
2023/10/13 15:56:33;;;;;;;19.60;8.18;;;18.00;83.70;;;;;;5031219;28;20531;-66
2023/10/13 15:59:02;;;;;;;20.95;8.43;;;17.90;83.60;;;;;;5032445;28;20063;-66
2023/10/13 16:01:28;;;;;;;26.02;7.72;;;17.90;83.70;;;;;;5014472;28;20495;-66
2023/10/13 16:03:54;;;;;;;22.48;8.75;;;18.00;83.50;;;;;;5032802;28;20423;-66
2023/10/13 16:06:25;;;;;;;26.42;8.10;;;17.90;83.60;;;;;;5031636;28;20049;-66
2023/10/13 16:08:51;;;;;;;22.20;8.13;;;17.90;83.60;;;;;;5013597;28;20461;-66
2023/10/13 16:11:20;;;;;;;24.08;8.90;;;17.90;83.70;;;;;;5030672;28;20140;-66
2023/10/13 16:13:50;;;;;;;23.00;9.27;;;17.80;83.60;;;;;;5030455;28;20385;-66
2023/10/13 16:16:24;;;;;;;22.83;8.27;;;17.80;83.70;;;;;;5030866;28;20361;-66
2023/10/13 16:18:51;;;;;;;21.10;8.65;;;17.80;83.70;;;;;;5031547;28;20045;-66
2023/10/13 16:21:17;;;;;;;21.42;8.43;;;17.80;83.70;;;;;;5030329;28;20052;-67